createdAt,value
2022-09-23T00:00:52.621Z,15.67
2022-09-23T00:01:52.655Z,16.08
2022-09-23T00:02:52.705Z,17.73
2022-09-23T00:03:52.586Z,16.49
2022-09-23T00:04:52.579Z,16.39
2022-09-23T00:05:52.566Z,16.08
2022-09-23T00:06:52.556Z,17.93
2022-09-23T00:07:52.544Z,18.55
2022-09-23T00:08:52.538Z,20.01
2022-09-23T00:09:52.521Z,18.87
2022-09-23T00:10:52.513Z,18.66
2022-09-23T00:11:52.501Z,18.56
2022-09-23T00:12:52.514Z,18.35
2022-09-23T00:13:52.478Z,18.35
2022-09-23T00:14:52.471Z,19.49
2022-09-23T00:15:52.457Z,18.35
2022-09-23T00:16:52.532Z,18.66
2022-09-23T00:17:52.434Z,21.04
2022-09-23T00:18:52.424Z,20.21
2022-09-23T00:19:52.410Z,18.66
2022-09-23T00:20:52.404Z,21.15
2022-09-23T00:21:52.387Z,19.19
2022-09-23T00:22:52.385Z,18.88
2022-09-23T00:23:52.372Z,18.88
2022-09-23T00:24:52.355Z,17.95
2022-09-23T00:25:52.346Z,17.53
2022-09-23T00:26:52.334Z,17.64
2022-09-23T00:27:52.320Z,17.43
2022-09-23T00:28:52.336Z,20.62
2022-09-23T00:29:52.298Z,17.64
2022-09-23T00:30:52.334Z,17.22
2022-09-23T00:31:52.279Z,17.43
2022-09-23T00:32:52.267Z,19.19
2022-09-23T00:33:52.254Z,17.02
2022-09-23T00:34:52.246Z,18.47
2022-09-23T00:35:52.231Z,18.05
2022-09-23T00:36:52.221Z,18.57
2022-09-23T00:37:52.211Z,17.44
2022-09-23T00:38:52.199Z,17.74
2022-09-23T00:39:52.188Z,18.98
2022-09-23T00:40:52.224Z,17.54
2022-09-23T00:41:52.173Z,16.92
2022-09-23T00:42:52.238Z,16.41
2022-09-23T00:43:52.145Z,16.82
2022-09-23T00:44:52.243Z,18.57
2022-09-23T00:45:52.234Z,17.44
2022-09-23T00:46:52.109Z,16.71
2022-09-23T00:47:52.098Z,16.30
2022-09-23T00:48:52.087Z,16.41
2022-09-23T00:49:52.077Z,16.20
2022-09-23T00:50:52.063Z,18.57
2022-09-23T00:51:52.052Z,16.09
2022-09-23T00:52:52.044Z,14.65
2022-09-23T00:53:52.031Z,14.96
2022-09-23T00:54:52.024Z,15.17
2022-09-23T00:55:52.007Z,14.23
2022-09-23T00:56:51.993Z,14.54
2022-09-23T00:57:51.984Z,14.33
2022-09-23T00:58:51.970Z,14.43
2022-09-23T00:59:51.960Z,15.89
2022-09-23T01:00:52.050Z,18.05
2022-09-23T01:01:51.939Z,15.99
2022-09-23T01:02:51.984Z,18.48
2022-09-23T01:03:51.915Z,17.44
2022-09-23T01:04:51.902Z,16.82
2022-09-23T01:05:51.891Z,17.86
2022-09-23T01:06:51.879Z,17.03
2022-09-23T01:07:51.870Z,17.34
2022-09-23T01:08:51.858Z,18.68
2022-09-23T01:09:51.850Z,17.13
2022-09-23T01:10:51.842Z,17.24
2022-09-23T01:11:51.829Z,18.89
2022-09-23T01:12:51.811Z,20.23
2022-09-23T01:13:51.801Z,16.72
2022-09-23T01:14:51.789Z,16.10
2022-09-23T01:15:51.778Z,16.20
2022-09-23T01:16:51.875Z,17.76
2022-09-23T01:17:51.757Z,16.31
2022-09-23T01:18:51.745Z,16.00
2022-09-23T01:19:51.733Z,16.72
2022-09-23T01:20:51.720Z,18.99
2022-09-23T01:21:51.710Z,15.17
2022-09-23T01:22:51.700Z,15.69
2022-09-23T01:23:51.688Z,15.28
2022-09-23T01:24:51.673Z,14.65
2022-09-23T01:25:51.690Z,16.10
2022-09-23T01:26:51.653Z,15.69
2022-09-23T01:27:51.650Z,15.48
2022-09-23T01:28:51.632Z,16.41
2022-09-23T01:29:51.622Z,18.59
2022-09-23T01:30:51.678Z,15.39
2022-09-23T01:31:51.598Z,15.90
2022-09-23T01:32:51.609Z,16.63
2022-09-23T01:33:51.576Z,16.11
2022-09-23T01:34:51.563Z,16.52
2022-09-23T01:35:51.553Z,16.21
2022-09-23T01:36:51.542Z,16.00
2022-09-23T01:37:51.531Z,16.94
2022-09-23T01:38:51.516Z,17.66
2022-09-23T01:39:51.509Z,18.18
2022-09-23T01:40:51.560Z,17.45
2022-09-23T01:41:51.484Z,17.05
2022-09-23T01:42:51.471Z,16.83
2022-09-23T01:43:51.464Z,16.00
2022-09-23T01:44:51.449Z,17.45
2022-09-23T01:45:51.439Z,16.73
2022-09-23T01:46:51.428Z,16.73
2022-09-23T01:47:51.467Z,16.21
2022-09-23T01:48:51.429Z,17.76
2022-09-23T01:49:51.393Z,17.25
2022-09-23T01:50:51.383Z,16.42
2022-09-23T01:51:51.374Z,17.45
2022-09-23T01:52:51.362Z,16.32
2022-09-23T01:53:51.355Z,16.63
2022-09-23T01:54:51.336Z,17.05
2022-09-23T01:55:51.329Z,17.25
2022-09-23T01:56:51.315Z,16.63
2022-09-23T01:57:51.315Z,16.63
2022-09-23T01:58:51.290Z,15.90
2022-09-23T01:59:51.282Z,16.31
2022-09-23T02:00:51.432Z,16.73
2022-09-23T02:01:51.270Z,15.28
2022-09-23T02:02:51.291Z,15.18
2022-09-23T02:03:51.238Z,15.08
2022-09-23T02:04:51.247Z,15.08
2022-09-23T02:05:51.214Z,15.28
2022-09-23T02:06:51.199Z,13.94
2022-09-23T02:07:51.190Z,14.25
2022-09-23T02:08:51.179Z,14.46
2022-09-23T02:09:51.170Z,13.93
2022-09-23T02:10:51.157Z,14.14
2022-09-23T02:11:51.147Z,14.65
2022-09-23T02:12:51.136Z,13.93
2022-09-23T02:13:51.124Z,13.93
2022-09-23T02:14:51.111Z,14.14
2022-09-23T02:15:51.099Z,14.56
2022-09-23T02:16:51.196Z,13.94
2022-09-23T02:17:51.104Z,14.35
2022-09-23T02:18:51.122Z,14.66
2022-09-23T02:19:51.146Z,13.42
2022-09-23T02:20:51.204Z,13.42
2022-09-23T02:21:51.155Z,13.31
2022-09-23T02:22:51.148Z,13.31
2022-09-23T02:23:51.022Z,13.73
2022-09-23T02:24:50.998Z,13.42
2022-09-23T02:25:50.989Z,14.04
2022-09-23T02:26:50.973Z,13.62
2022-09-23T02:27:50.962Z,13.62
2022-09-23T02:28:50.949Z,13.21
2022-09-23T02:29:50.942Z,13.31
2022-09-23T02:30:50.927Z,13.42
2022-09-23T02:31:50.978Z,13.52
2022-09-23T02:32:50.904Z,13.42
2022-09-23T02:33:50.961Z,14.04
2022-09-23T02:34:50.880Z,13.42
2022-09-23T02:35:50.870Z,13.62
2022-09-23T02:36:50.880Z,13.73
2022-09-23T02:37:50.859Z,12.90
2022-09-23T02:38:50.836Z,13.42
2022-09-23T02:39:50.825Z,13.21
2022-09-23T02:40:50.963Z,12.70
2022-09-23T02:41:50.808Z,12.28
2022-09-23T02:42:50.790Z,12.28
2022-09-23T02:43:50.783Z,12.07
2022-09-23T02:44:50.766Z,12.17
2022-09-23T02:45:50.843Z,12.59
2022-09-23T02:46:50.745Z,13.62
2022-09-23T02:47:50.737Z,12.59
2022-09-23T02:48:50.723Z,12.49
2022-09-23T02:49:50.713Z,12.38
2022-09-23T02:50:50.699Z,12.28
2022-09-23T02:51:50.689Z,12.90
2022-09-23T02:52:50.705Z,12.90
2022-09-23T02:53:50.670Z,12.59
2022-09-23T02:54:50.657Z,12.07
2022-09-23T02:55:50.642Z,11.98
2022-09-23T02:56:50.629Z,12.28
2022-09-23T02:57:50.648Z,12.70
2022-09-23T02:58:50.607Z,11.98
2022-09-23T02:59:50.598Z,12.28
2022-09-23T03:00:50.656Z,12.80
2022-09-23T03:01:50.628Z,12.07
2022-09-23T03:02:50.560Z,12.38
2022-09-23T03:03:50.551Z,12.28
2022-09-23T03:04:50.541Z,12.49
2022-09-23T03:05:50.529Z,13.11
2022-09-23T03:06:50.515Z,12.80
2022-09-23T03:07:50.504Z,12.07
2022-09-23T03:08:50.516Z,11.98
2022-09-23T03:09:50.482Z,12.90
2022-09-23T03:10:50.470Z,12.18
2022-09-23T03:11:50.461Z,12.28
2022-09-23T03:12:50.447Z,12.28
2022-09-23T03:13:50.437Z,12.18
2022-09-23T03:14:50.423Z,12.38
2022-09-23T03:15:50.415Z,12.90
2022-09-23T03:16:50.483Z,12.49
2022-09-23T03:17:50.390Z,12.38
2022-09-23T03:18:50.379Z,12.28
2022-09-23T03:19:50.368Z,11.56
2022-09-23T03:20:50.357Z,11.77
2022-09-23T03:21:50.344Z,11.87
2022-09-23T03:22:50.333Z,11.98
2022-09-23T03:23:50.323Z,11.56
2022-09-23T03:24:53.864Z,12.38
2022-09-23T03:25:50.300Z,12.38
2022-09-23T03:26:50.288Z,11.98
2022-09-23T03:27:50.277Z,12.59
2022-09-23T03:28:50.264Z,11.98
2022-09-23T03:29:50.262Z,12.90
2022-09-23T03:30:50.244Z,12.28
2022-09-23T03:31:50.367Z,12.07
2022-09-23T03:32:50.220Z,12.80
2022-09-23T03:33:50.210Z,12.29
2022-09-23T03:34:50.200Z,12.70
2022-09-23T03:35:50.188Z,12.28
2022-09-23T03:36:50.176Z,12.91
2022-09-23T03:37:50.167Z,12.39
2022-09-23T03:38:50.154Z,12.60
2022-09-23T03:39:50.145Z,12.39
2022-09-23T03:40:50.217Z,12.60
2022-09-23T03:41:50.124Z,12.39
2022-09-23T03:42:50.112Z,12.08
2022-09-23T03:43:50.108Z,12.38
2022-09-23T03:44:50.091Z,12.49
2022-09-23T03:45:50.138Z,12.91
2022-09-23T03:46:50.066Z,12.39
2022-09-23T03:47:50.061Z,12.60
2022-09-23T03:48:50.043Z,12.49
2022-09-23T03:49:50.033Z,12.81
2022-09-23T03:50:50.021Z,12.91
2022-09-23T03:51:50.010Z,12.70
2022-09-23T03:52:49.995Z,14.04
2022-09-23T03:53:49.988Z,12.81
2022-09-23T03:54:49.975Z,13.01
2022-09-23T03:55:49.973Z,12.81
2022-09-23T03:56:49.979Z,12.60
2022-09-23T03:57:49.945Z,12.49
2022-09-23T03:58:49.934Z,12.49
2022-09-23T03:59:49.923Z,12.60
2022-09-23T04:00:50.035Z,13.01
2022-09-23T04:01:49.935Z,12.39
2022-09-23T04:02:49.891Z,12.70
2022-09-23T04:03:49.883Z,12.39
2022-09-23T04:04:49.870Z,12.18
2022-09-23T04:05:49.865Z,12.18
2022-09-23T04:06:49.848Z,12.39
2022-09-23T04:07:49.838Z,12.39
2022-09-23T04:08:50.140Z,12.18
2022-09-23T04:09:49.816Z,13.22
2022-09-23T04:10:54.124Z,12.60
2022-09-23T04:11:49.805Z,12.70
2022-09-23T04:12:49.824Z,11.98
2022-09-23T04:13:49.773Z,12.18
2022-09-23T04:14:49.758Z,11.88
2022-09-23T04:15:49.750Z,12.29
2022-09-23T04:16:49.780Z,12.91
2022-09-23T04:17:49.733Z,12.81
2022-09-23T04:18:49.718Z,12.60
2022-09-23T04:19:49.703Z,12.29
2022-09-23T04:20:49.692Z,12.29
2022-09-23T04:21:49.681Z,12.39
2022-09-23T04:22:49.669Z,13.22
2022-09-23T04:23:49.660Z,12.60
2022-09-23T04:24:49.652Z,12.81
2022-09-23T04:25:49.636Z,12.39
2022-09-23T04:26:49.624Z,12.91
2022-09-23T04:27:49.615Z,13.22
2022-09-23T04:28:49.630Z,12.81
2022-09-23T04:29:49.593Z,12.60
2022-09-23T04:30:49.581Z,12.49
2022-09-23T04:31:49.614Z,12.49
2022-09-23T04:32:49.658Z,12.18
2022-09-23T04:33:49.553Z,12.39
2022-09-23T04:34:49.734Z,13.32
2022-09-23T04:35:49.529Z,12.91
2022-09-23T04:36:49.513Z,13.63
2022-09-23T04:37:49.506Z,12.70
2022-09-23T04:38:49.492Z,12.81
2022-09-23T04:39:49.482Z,12.92
2022-09-23T04:40:49.584Z,13.84
2022-09-23T04:41:49.464Z,13.12
2022-09-23T04:42:49.453Z,13.43
2022-09-23T04:43:49.441Z,13.64
2022-09-23T04:44:49.454Z,13.54
2022-09-23T04:45:49.431Z,13.43
2022-09-23T04:46:49.496Z,14.37
2022-09-23T04:47:49.404Z,13.75
2022-09-23T04:48:49.386Z,13.95
2022-09-23T04:49:49.378Z,13.85
2022-09-23T04:50:49.366Z,14.06
2022-09-23T04:51:49.357Z,13.95
2022-09-23T04:52:49.345Z,14.06
2022-09-23T04:53:49.337Z,13.85
2022-09-23T04:54:49.325Z,14.26
2022-09-23T04:55:49.313Z,13.95
2022-09-23T04:56:49.302Z,13.64
2022-09-23T04:57:49.290Z,15.19
2022-09-23T04:58:49.278Z,14.89
2022-09-23T04:59:49.270Z,14.37
2022-09-23T05:00:49.369Z,14.17
2022-09-23T05:01:49.311Z,14.16
2022-09-23T05:02:49.238Z,13.85
2022-09-23T05:03:49.228Z,13.95
2022-09-23T05:04:49.217Z,14.06
2022-09-23T05:05:49.206Z,14.26
2022-09-23T05:06:49.202Z,14.17
2022-09-23T05:07:49.183Z,14.69
2022-09-23T05:08:49.174Z,14.69
2022-09-23T05:09:49.164Z,16.24
2022-09-23T05:10:49.152Z,15.83
2022-09-23T05:11:49.139Z,15.00
2022-09-23T05:12:51.452Z,15.72
2022-09-23T05:13:49.119Z,14.79
2022-09-23T05:14:49.109Z,15.11
2022-09-23T05:15:49.147Z,15.00
2022-09-23T05:16:49.115Z,14.48
2022-09-23T05:17:49.074Z,14.79
2022-09-23T05:18:49.065Z,14.37
2022-09-23T05:19:49.049Z,14.79
2022-09-23T05:20:49.042Z,14.79
2022-09-23T05:21:49.038Z,14.69
2022-09-23T05:22:49.024Z,15.20
2022-09-23T05:23:49.008Z,14.59
2022-09-23T05:24:48.997Z,14.89
2022-09-23T05:25:48.983Z,15.52
2022-09-23T05:26:48.977Z,14.79
2022-09-23T05:27:48.964Z,14.79
2022-09-23T05:28:48.950Z,15.31
2022-09-23T05:29:48.944Z,14.89
2022-09-23T05:30:48.931Z,14.79
2022-09-23T05:31:48.984Z,15.41
2022-09-23T05:32:48.969Z,14.69
2022-09-23T05:33:48.894Z,14.89
2022-09-23T05:34:48.886Z,16.45
2022-09-23T05:35:48.880Z,15.72
2022-09-23T05:36:48.863Z,15.31
2022-09-23T05:37:48.854Z,15.52
2022-09-23T05:38:48.850Z,15.21
2022-09-23T05:39:48.828Z,15.11
2022-09-23T05:40:48.897Z,14.79
2022-09-23T05:41:48.805Z,15.52
2022-09-23T05:42:48.793Z,16.03
2022-09-23T05:43:48.781Z,15.42
2022-09-23T05:44:48.773Z,15.00
2022-09-23T05:45:48.765Z,15.31
2022-09-23T05:46:48.806Z,15.11
2022-09-23T05:47:48.745Z,15.31
2022-09-23T05:48:48.753Z,15.62
2022-09-23T05:49:59.616Z,15.21
2022-09-23T05:50:49.736Z,15.62
2022-09-23T05:51:48.694Z,15.83
2022-09-23T05:52:48.684Z,15.11
2022-09-23T05:53:48.670Z,15.62
2022-09-23T05:54:48.661Z,14.79
2022-09-23T05:55:48.649Z,15.00
2022-09-23T05:56:48.641Z,15.10
2022-09-23T05:57:48.628Z,14.79
2022-09-23T05:58:48.618Z,14.58
2022-09-23T05:59:48.614Z,14.48
2022-09-23T06:00:48.597Z,14.58
2022-09-23T06:01:51.074Z,14.37
2022-09-23T06:02:48.629Z,13.95
2022-09-23T06:03:48.564Z,14.06
2022-09-23T06:04:48.575Z,14.06
2022-09-23T06:05:48.548Z,13.75
2022-09-23T06:06:48.537Z,13.95
2022-09-23T06:07:48.516Z,13.43
2022-09-23T06:08:48.511Z,13.54
2022-09-23T06:09:48.495Z,13.75
2022-09-23T06:10:53.570Z,13.33
2022-09-23T06:11:48.475Z,13.64
2022-09-23T06:12:48.463Z,13.12
2022-09-23T06:13:48.452Z,13.02
2022-09-23T06:14:48.441Z,13.53
2022-09-23T06:15:48.523Z,12.81
2022-09-23T06:16:48.422Z,12.81
2022-09-23T06:17:48.405Z,12.60
2022-09-23T06:18:48.399Z,12.60
2022-09-23T06:19:48.384Z,12.29
2022-09-23T06:20:48.401Z,12.49
2022-09-23T06:21:48.369Z,12.39
2022-09-23T06:22:51.450Z,11.67
2022-09-23T06:23:48.430Z,11.56
2022-09-23T06:24:48.333Z,11.25
2022-09-23T06:25:48.321Z,10.94
2022-09-23T06:26:48.317Z,10.94
2022-09-23T06:27:48.300Z,10.63
2022-09-23T06:28:48.291Z,10.41
2022-09-23T06:29:48.275Z,10.11
2022-09-23T06:30:48.267Z,10.11
2022-09-23T06:31:48.361Z,9.90
2022-09-23T06:32:48.243Z,9.07
2022-09-23T06:33:48.233Z,9.28
2022-09-23T06:34:51.904Z,9.28
2022-09-23T06:35:57.309Z,8.97
2022-09-23T06:36:48.220Z,8.86
2022-09-23T06:37:48.185Z,8.55
2022-09-23T06:38:48.174Z,8.14
2022-09-23T06:39:48.161Z,8.14
2022-09-23T06:40:48.208Z,7.82
2022-09-23T06:41:48.140Z,7.42
2022-09-23T06:42:52.271Z,7.10
2022-09-23T06:43:48.131Z,6.99
2022-09-23T06:44:48.108Z,6.59
2022-09-23T06:45:48.095Z,6.38
2022-09-23T06:46:48.182Z,6.07
2022-09-23T06:47:48.077Z,6.48
2022-09-23T06:48:48.065Z,6.07
2022-09-23T06:49:48.052Z,5.86
2022-09-23T06:50:48.045Z,5.65
2022-09-23T06:51:48.032Z,5.45
2022-09-23T06:52:48.045Z,5.45
2022-09-23T06:53:48.009Z,5.34
2022-09-23T06:54:48.003Z,5.24
2022-09-23T06:55:47.987Z,5.24
2022-09-23T06:56:47.978Z,4.72
2022-09-23T06:57:47.965Z,4.52
2022-09-23T06:58:47.960Z,4.52
2022-09-23T06:59:47.944Z,4.52
2022-09-23T07:00:47.934Z,4.41
2022-09-23T07:01:48.026Z,4.41
2022-09-23T07:02:48.014Z,4.93
2022-09-23T07:03:47.900Z,4.52
2022-09-23T07:04:47.908Z,4.41
2022-09-23T07:05:47.878Z,4.31
2022-09-23T07:06:47.915Z,3.90
2022-09-23T07:07:47.859Z,3.90
2022-09-23T07:08:53.728Z,3.69
2022-09-23T07:09:47.854Z,4.31
2022-09-23T07:10:47.829Z,4.00
2022-09-23T07:11:47.810Z,4.00
2022-09-23T07:12:47.801Z,3.28
2022-09-23T07:13:47.798Z,3.07
2022-09-23T07:14:47.777Z,3.89
2022-09-23T07:15:47.963Z,4.20
2022-09-23T07:16:47.762Z,4.50
2022-09-23T07:17:47.750Z,6.76
2022-09-23T07:18:47.736Z,7.26
2022-09-23T07:19:47.725Z,8.59
2022-09-23T07:20:47.713Z,10.23
2022-09-23T07:21:47.700Z,14.53
2022-09-23T07:22:47.689Z,18.10
2022-09-23T07:23:47.677Z,18.10
2022-09-23T07:24:47.669Z,18.30
2022-09-23T07:25:47.679Z,17.47
2022-09-23T07:26:47.810Z,22.16
2022-09-23T07:27:47.696Z,23.68
2022-09-23T07:28:47.623Z,47.45
2022-09-23T07:29:48.992Z,45.79
2022-09-23T07:30:57.211Z,48.73
2022-09-23T07:31:47.670Z,45.06
2022-09-23T07:32:49.145Z,43.20
2022-09-23T07:33:47.568Z,52.17
2022-09-23T07:34:47.558Z,66.61
2022-09-23T07:35:47.544Z,65.80
2022-09-23T07:36:47.539Z,60.16
2022-09-23T07:37:47.585Z,58.81
2022-09-23T07:38:47.761Z,59.32
2022-09-23T07:39:47.796Z,61.63
2022-09-23T07:40:47.659Z,64.89
2022-09-23T07:41:47.504Z,70.58
2022-09-23T07:42:47.471Z,71.60
2022-09-23T07:43:47.464Z,82.93
2022-09-23T07:44:47.447Z,77.91
2022-09-23T07:45:47.438Z,84.42
2022-09-23T07:46:47.555Z,77.53
2022-09-23T07:47:47.423Z,72.01
2022-09-23T07:48:47.407Z,82.34
2022-09-23T07:49:47.400Z,77.12
2022-09-23T07:50:47.402Z,79.93
2022-09-23T07:51:47.582Z,81.31
2022-09-23T07:52:47.414Z,89.94
2022-09-23T07:53:47.466Z,85.53
2022-09-23T07:54:47.550Z,82.90
2022-09-23T07:55:47.330Z,87.12
2022-09-23T07:56:47.553Z,86.00
2022-09-23T07:57:47.343Z,86.07
2022-09-23T07:58:47.563Z,87.48
2022-09-23T07:59:47.288Z,88.46
2022-09-23T08:00:47.275Z,92.21
2022-09-23T08:01:47.309Z,89.87
2022-09-23T08:02:50.768Z,94.13
2022-09-23T08:03:47.283Z,95.95
2022-09-23T08:04:47.232Z,92.82
2022-09-23T08:05:47.215Z,96.10
2022-09-23T08:06:47.209Z,91.75
2022-09-23T08:07:47.196Z,97.02
2022-09-23T08:08:52.555Z,95.65
2022-09-23T08:09:47.177Z,95.30
2022-09-23T08:10:47.163Z,94.19
2022-09-23T08:11:47.151Z,94.35
2022-09-23T08:12:47.142Z,98.29
2022-09-23T08:13:47.164Z,95.62
2022-09-23T08:14:47.136Z,97.34
2022-09-23T08:15:49.126Z,97.19
2022-09-23T08:16:47.099Z,97.45
2022-09-23T08:17:47.086Z,99.73
2022-09-23T08:18:47.078Z,98.56
2022-09-23T08:19:47.067Z,98.01
2022-09-23T08:20:47.686Z,98.67
2022-09-23T08:21:47.145Z,98.07
2022-09-23T08:22:47.138Z,99.18
2022-09-23T08:23:47.124Z,98.62
2022-09-23T08:24:47.016Z,98.68
2022-09-23T08:25:47.148Z,97.97
2022-09-23T08:26:47.025Z,98.73
2022-09-23T08:27:46.982Z,96.15
2022-09-23T08:28:46.972Z,96.25
2022-09-23T08:29:46.987Z,96.86
2022-09-23T08:30:46.970Z,97.87
2022-09-23T08:31:46.937Z,93.88
2022-09-23T08:32:46.923Z,96.30
2022-09-23T08:33:46.913Z,95.39
2022-09-23T08:34:46.903Z,94.44
2022-09-23T08:35:46.890Z,94.74
2022-09-23T08:36:46.884Z,88.23
2022-09-23T08:37:46.900Z,94.68
2022-09-23T08:38:46.861Z,92.72
2022-09-23T08:39:46.844Z,85.62
2022-09-23T08:40:46.881Z,86.93
2022-09-23T08:41:46.826Z,88.24
2022-09-23T08:42:46.812Z,83.91
2022-09-23T08:43:46.802Z,85.78
2022-09-23T08:44:46.791Z,84.17
2022-09-23T08:45:46.874Z,85.58
2022-09-23T08:46:46.773Z,88.90
2022-09-23T08:47:46.762Z,90.22
2022-09-23T08:48:46.756Z,88.04
2022-09-23T08:49:46.748Z,91.67
2022-09-23T08:50:46.731Z,84.21
2022-09-23T08:51:46.716Z,85.66
2022-09-23T08:52:46.704Z,87.63
2022-09-23T08:53:46.693Z,92.13
2022-09-23T08:54:46.686Z,86.13
2022-09-23T08:55:46.671Z,83.66
2022-09-23T08:56:46.668Z,89.06
2022-09-23T08:57:57.609Z,80.80
2022-09-23T08:58:47.666Z,85.90
2022-09-23T08:59:46.646Z,76.54
2022-09-23T09:00:46.628Z,82.54
2022-09-23T09:01:46.719Z,75.39
2022-09-23T09:02:46.611Z,72.64
2022-09-23T09:03:46.588Z,78.51
2022-09-23T09:04:46.576Z,74.18
2022-09-23T09:05:53.910Z,75.05
2022-09-23T09:06:53.572Z,80.99
2022-09-23T09:07:46.554Z,73.04
2022-09-23T09:08:46.532Z,77.43
2022-09-23T09:09:46.521Z,73.81
2022-09-23T09:10:46.527Z,74.48
2022-09-23T09:11:48.575Z,74.01
2022-09-23T09:12:46.489Z,74.32
2022-09-23T09:13:46.479Z,74.62
2022-09-23T09:14:46.466Z,73.24
2022-09-23T09:15:46.516Z,73.61
2022-09-23T09:16:59.478Z,73.21
2022-09-23T09:17:47.485Z,72.47
2022-09-23T09:18:46.422Z,72.47
2022-09-23T09:19:46.413Z,70.06
2022-09-23T09:20:46.401Z,69.96
2022-09-23T09:21:46.531Z,76.09
2022-09-23T09:22:46.394Z,78.70
2022-09-23T09:23:46.399Z,67.58
2022-09-23T09:24:46.357Z,70.76
2022-09-23T09:25:46.348Z,71.67
2022-09-23T09:26:46.338Z,73.08
2022-09-23T09:27:46.344Z,73.28
2022-09-23T09:28:46.315Z,76.76
2022-09-23T09:29:46.391Z,71.50
2022-09-23T09:30:48.598Z,67.18
2022-09-23T09:31:46.402Z,72.24
2022-09-23T09:32:46.484Z,73.81
2022-09-23T09:33:46.517Z,70.46
2022-09-23T09:34:46.476Z,73.98
2022-09-23T09:35:46.356Z,72.27
2022-09-23T09:36:46.230Z,68.88
2022-09-23T09:37:46.222Z,72.81
2022-09-23T09:38:46.208Z,80.93
2022-09-23T09:39:46.212Z,70.70
2022-09-23T09:40:46.314Z,77.50
2022-09-23T09:41:46.177Z,72.00
2022-09-23T09:42:46.168Z,74.49
2022-09-23T09:43:46.156Z,71.47
2022-09-23T09:44:46.201Z,75.15
2022-09-23T09:45:46.137Z,71.94
2022-09-23T09:46:46.245Z,69.12
2022-09-23T09:47:46.113Z,70.70
2022-09-23T09:48:46.098Z,69.18
2022-09-23T09:49:46.111Z,65.67
2022-09-23T09:50:46.078Z,68.55
2022-09-23T09:51:46.066Z,69.35
2022-09-23T09:52:46.010Z,71.26
2022-09-23T09:53:45.997Z,68.12
2022-09-23T09:54:45.977Z,71.94
2022-09-23T09:55:45.987Z,67.82
2022-09-23T09:57:45.999Z,68.12
2022-09-23T09:58:45.937Z,69.62
2022-09-23T09:59:45.939Z,69.99
2022-09-23T10:00:45.917Z,69.39
2022-09-23T10:01:45.955Z,65.67
2022-09-23T10:02:45.889Z,67.38
2022-09-23T10:03:45.900Z,65.97
2022-09-23T10:04:46.032Z,65.84
2022-09-23T10:05:45.899Z,64.64
2022-09-23T10:06:45.850Z,64.74
2022-09-23T10:07:45.836Z,65.01
2022-09-23T10:08:45.826Z,62.80
2022-09-23T10:09:45.819Z,68.02
2022-09-23T10:10:46.006Z,63.23
2022-09-23T10:11:45.792Z,66.35
2022-09-23T10:12:45.783Z,65.97
2022-09-23T10:13:45.768Z,63.67
2022-09-23T10:14:45.755Z,60.58
2022-09-23T10:15:45.789Z,62.92
2022-09-23T10:16:45.948Z,66.24
2022-09-23T10:17:45.729Z,66.34
2022-09-23T10:18:45.721Z,64.53
2022-09-23T10:19:45.708Z,66.41
2022-09-23T10:20:45.692Z,65.80
2022-09-23T10:21:45.739Z,61.88
2022-09-23T10:22:45.671Z,62.89
2022-09-23T10:23:45.662Z,62.69
2022-09-23T10:24:45.651Z,64.33
2022-09-23T10:25:45.654Z,65.10
2022-09-23T10:26:45.692Z,67.58
2022-09-23T10:27:45.626Z,64.57
2022-09-23T10:28:45.609Z,64.37
2022-09-23T10:29:45.752Z,64.37
2022-09-23T10:30:45.652Z,62.26
2022-09-23T10:31:45.578Z,61.58
2022-09-23T10:32:45.576Z,62.82
2022-09-23T10:33:45.556Z,67.04
2022-09-23T10:34:45.852Z,66.41
2022-09-23T10:35:45.534Z,70.53
2022-09-23T10:36:45.521Z,66.00
2022-09-23T10:37:45.536Z,66.31
2022-09-23T10:38:45.504Z,63.62
2022-09-23T10:39:45.503Z,66.94
2022-09-23T10:40:45.590Z,65.53
2022-09-23T10:41:45.494Z,64.70
2022-09-23T10:42:45.486Z,68.49
2022-09-23T10:43:45.470Z,64.27
2022-09-23T10:44:45.446Z,61.86
2022-09-23T10:45:45.473Z,65.24
2022-09-23T10:46:45.451Z,64.51
2022-09-23T10:47:45.419Z,59.49
2022-09-23T10:48:45.409Z,60.86
2022-09-23T10:49:45.389Z,61.17
2022-09-23T10:50:45.379Z,61.36
2022-09-23T10:51:45.371Z,62.34
2022-09-23T10:52:45.360Z,62.34
2022-09-23T10:53:45.373Z,62.61
2022-09-23T10:54:45.342Z,61.31
2022-09-23T10:55:45.331Z,61.91
2022-09-23T10:56:45.318Z,65.52
2022-09-23T10:57:45.310Z,60.41
2022-09-23T10:58:45.298Z,60.31
2022-09-23T10:59:45.288Z,60.25
2022-09-23T11:00:45.279Z,58.25
2022-09-23T11:01:45.354Z,60.89
2022-09-23T11:02:45.261Z,58.26
2022-09-23T11:03:45.251Z,54.94
2022-09-23T11:04:45.292Z,55.14
2022-09-23T11:05:45.270Z,55.51
2022-09-23T11:06:45.219Z,53.52
2022-09-23T11:07:45.211Z,54.37
2022-09-23T11:08:45.198Z,55.44
2022-09-23T11:09:45.209Z,55.74
2022-09-23T11:10:46.666Z,54.64
2022-09-23T11:11:45.164Z,57.11
2022-09-23T11:12:45.156Z,55.49
2022-09-23T11:13:45.153Z,54.89
2022-09-23T11:14:45.133Z,53.89
2022-09-23T11:15:45.126Z,53.61
2022-09-23T11:16:45.190Z,54.02
2022-09-23T11:17:45.109Z,54.29
2022-09-23T11:18:45.146Z,56.98
2022-09-23T11:19:45.758Z,54.66
2022-09-23T11:20:45.070Z,53.59
2022-09-23T11:21:45.070Z,54.32
2022-09-23T11:22:45.050Z,54.22
2022-09-23T11:23:45.040Z,54.64
2022-09-23T11:24:45.032Z,54.94
2022-09-23T11:25:45.043Z,54.14
2022-09-23T11:26:45.014Z,54.74
2022-09-23T11:27:45.000Z,52.84
2022-09-23T11:28:44.989Z,53.69
2022-09-23T11:29:44.976Z,55.69
2022-09-23T11:30:45.017Z,55.59
2022-09-23T11:31:45.003Z,55.87
2022-09-23T11:32:44.965Z,54.97
2022-09-23T11:33:44.940Z,54.37
2022-09-23T11:34:44.925Z,56.67
2022-09-23T11:35:45.003Z,55.44
2022-09-23T11:36:44.907Z,52.64
2022-09-23T11:37:44.971Z,53.57
2022-09-23T11:38:44.894Z,55.94
2022-09-23T11:39:44.878Z,54.04
2022-09-23T11:40:46.521Z,53.77
2022-09-23T11:41:44.888Z,54.77
2022-09-23T11:42:44.847Z,55.47
2022-09-23T11:43:44.835Z,54.12
2022-09-23T11:44:44.975Z,55.05
2022-09-23T11:45:44.878Z,56.70
2022-09-23T11:46:44.800Z,57.50
2022-09-23T11:47:44.790Z,57.13
2022-09-23T11:48:44.780Z,57.76
2022-09-23T11:49:44.772Z,57.86
2022-09-23T11:50:44.761Z,58.23
2022-09-23T11:51:44.749Z,59.23
2022-09-23T11:52:44.737Z,57.43
2022-09-23T11:53:44.730Z,60.21
2022-09-23T11:54:44.713Z,59.48
2022-09-23T11:55:55.154Z,59.18
2022-09-23T11:56:48.497Z,58.98
2022-09-23T11:57:49.357Z,58.25
2022-09-23T11:58:48.758Z,57.65
2022-09-23T11:59:46.080Z,58.92
2022-09-23T12:00:49.603Z,56.42
2022-09-23T12:01:45.941Z,57.12
2022-09-23T12:02:48.460Z,57.82
2022-09-23T12:03:45.880Z,56.72
2022-09-23T12:04:54.541Z,57.92
2022-09-23T12:05:45.828Z,55.92
2022-09-23T12:06:44.592Z,56.02
2022-09-23T12:07:44.583Z,58.09
2022-09-23T12:08:44.571Z,56.59
2022-09-23T12:09:58.059Z,55.29
2022-09-23T12:10:45.575Z,55.32
2022-09-23T12:11:44.639Z,58.12
2022-09-23T12:12:44.524Z,58.80
2022-09-23T12:13:44.639Z,55.49
2022-09-23T12:14:44.503Z,56.12
2022-09-23T12:15:44.494Z,55.65
2022-09-23T12:16:44.539Z,57.78
2022-09-23T12:17:44.471Z,59.28
2022-09-23T12:18:44.462Z,57.78
2022-09-23T12:19:44.452Z,56.87
2022-09-23T12:20:44.442Z,57.55
2022-09-23T12:21:50.645Z,56.17
2022-09-23T12:22:45.450Z,59.28
2022-09-23T12:23:44.407Z,59.08
2022-09-23T12:24:44.398Z,56.48
2022-09-23T12:25:44.390Z,56.90
2022-09-23T12:26:44.377Z,58.23
2022-09-23T12:27:44.368Z,60.94
2022-09-23T12:28:44.368Z,58.63
2022-09-23T12:29:44.383Z,60.44
2022-09-23T12:30:44.389Z,63.21
2022-09-23T12:31:46.720Z,60.51
2022-09-23T12:32:44.317Z,59.70
2022-09-23T12:33:44.305Z,59.13
2022-09-23T12:34:44.295Z,62.01
2022-09-23T12:35:44.287Z,62.21
2022-09-23T12:36:44.268Z,62.01
2022-09-23T12:37:44.261Z,61.68
2022-09-23T12:38:44.252Z,58.87
2022-09-23T12:39:44.244Z,61.18
2022-09-23T12:40:44.340Z,60.78
2022-09-23T12:41:44.220Z,58.48
2022-09-23T12:42:44.215Z,60.95
2022-09-23T12:43:44.197Z,62.05
2022-09-23T12:44:44.203Z,62.15
2022-09-23T12:45:44.242Z,59.85
2022-09-23T12:46:44.163Z,61.35
2022-09-23T12:47:44.160Z,59.52
2022-09-23T12:48:44.153Z,58.72
2022-09-23T12:49:44.133Z,57.42
2022-09-23T12:50:44.121Z,57.92
2022-09-23T12:51:44.117Z,60.92
2022-09-23T12:52:44.103Z,58.42
2022-09-23T12:53:44.090Z,57.59
2022-09-23T12:54:44.079Z,58.69
2022-09-23T12:55:44.072Z,64.19